createdAt,value
2019-05-03T00:00:02.642Z,90.41
2019-05-03T00:01:02.893Z,90.61
2019-05-03T00:02:01.987Z,90.45
2019-05-03T00:03:02.672Z,91.27
2019-05-03T00:04:02.587Z,90.72
2019-05-03T00:05:02.448Z,91.23
2019-05-03T00:06:03.240Z,91.23
2019-05-03T00:07:02.757Z,90.03
2019-05-03T00:08:03.661Z,91.17
2019-05-03T00:09:02.871Z,89.62
2019-05-03T00:10:37.318Z,88.29
2019-05-03T00:11:03.151Z,89.73
2019-05-03T00:12:03.267Z,90.55
2019-05-03T00:13:03.528Z,90.41
2019-05-03T00:14:03.684Z,90.61
2019-05-03T00:15:03.820Z,91.02
2019-05-03T00:16:03.964Z,90.51
2019-05-03T00:17:04.128Z,90.24
2019-05-03T00:18:04.298Z,90.51
2019-05-03T00:19:04.446Z,90.51
2019-05-03T00:20:04.584Z,90.34
2019-05-03T00:21:04.723Z,89.48
2019-05-03T00:22:04.851Z,88.96
2019-05-03T00:23:06.937Z,89.58
2019-05-03T00:24:05.160Z,90.55
2019-05-03T00:25:08.309Z,89.58
2019-05-03T00:26:06.517Z,88.96
2019-05-03T00:27:05.668Z,89.89
2019-05-03T00:28:05.942Z,89.58
2019-05-03T00:29:05.951Z,89.28
2019-05-03T00:30:06.933Z,89.58
2019-05-03T00:31:06.300Z,90.51
2019-05-03T00:32:07.443Z,90.34
2019-05-03T00:33:06.586Z,89.58
2019-05-03T00:34:06.753Z,89.62
2019-05-03T00:35:07.429Z,89.69
2019-05-03T00:36:07.929Z,89.52
2019-05-03T00:37:07.315Z,90.51
2019-05-03T00:38:41.896Z,90.03
2019-05-03T00:39:07.598Z,91.06
2019-05-03T00:40:07.733Z,90.45
2019-05-03T00:41:07.879Z,90.20
2019-05-03T00:42:08.011Z,90.96
2019-05-03T00:43:08.192Z,90.41
2019-05-03T00:44:08.462Z,90.81
2019-05-03T00:45:08.513Z,90.45
2019-05-03T00:46:09.450Z,89.94
2019-05-03T00:47:08.827Z,90.51
2019-05-03T00:48:09.009Z,90.03
2019-05-03T00:49:09.453Z,90.55
2019-05-03T00:50:12.019Z,90.34
2019-05-03T00:51:09.462Z,90.24
2019-05-03T00:52:11.680Z,91.00
2019-05-03T00:53:11.717Z,91.42
2019-05-03T00:54:12.632Z,91.00
2019-05-03T00:55:17.053Z,91.68
2019-05-03T00:56:12.369Z,91.68
2019-05-03T00:57:12.120Z,91.83
2019-05-03T00:58:11.828Z,91.52
2019-05-03T00:59:12.744Z,91.47
2019-05-03T01:00:12.421Z,91.47
2019-05-03T01:01:12.962Z,91.68
2019-05-03T01:02:11.982Z,91.68
2019-05-03T01:03:12.658Z,91.78
2019-05-03T01:04:12.853Z,91.38
2019-05-03T01:05:12.085Z,91.78
2019-05-03T01:06:45.506Z,91.38
2019-05-03T01:07:12.349Z,91.27
2019-05-03T01:08:12.754Z,91.38
2019-05-03T01:09:13.700Z,90.86
2019-05-03T01:10:12.928Z,90.96
2019-05-03T01:11:13.047Z,90.86
2019-05-03T01:12:13.278Z,91.06
2019-05-03T01:13:13.472Z,91.27
2019-05-03T01:14:13.611Z,89.97
2019-05-03T01:15:13.749Z,90.59
2019-05-03T01:16:13.886Z,90.90
2019-05-03T01:17:14.986Z,90.69
2019-05-03T01:18:14.276Z,91.00
2019-05-03T01:19:14.468Z,91.72
2019-05-03T01:20:14.642Z,90.80
2019-05-03T01:21:15.477Z,91.31
2019-05-03T01:22:15.983Z,90.49
2019-05-03T01:23:15.209Z,90.75
2019-05-03T01:24:18.112Z,91.00
2019-05-03T01:25:15.598Z,90.86
2019-05-03T01:26:15.798Z,91.31
2019-05-03T01:27:15.991Z,91.11
2019-05-03T01:28:16.183Z,90.39
2019-05-03T01:29:16.384Z,90.69
2019-05-03T01:30:16.600Z,90.49
2019-05-03T01:31:16.760Z,91.11
2019-05-03T01:32:16.926Z,91.00
2019-05-03T01:33:17.981Z,90.80
2019-05-03T01:34:52.358Z,91.38
2019-05-03T01:35:17.465Z,90.90
2019-05-03T01:36:18.011Z,90.80
2019-05-03T01:37:18.495Z,90.59
2019-05-03T01:38:19.446Z,90.69
2019-05-03T01:39:19.214Z,90.49
2019-05-03T01:40:18.338Z,90.39
2019-05-03T01:41:18.505Z,91.15
2019-05-03T01:42:18.663Z,91.11
2019-05-03T01:43:18.816Z,90.49
2019-05-03T01:44:18.964Z,90.39
2019-05-03T01:45:20.009Z,91.00
2019-05-03T01:46:19.289Z,91.00
2019-05-03T01:47:19.427Z,90.08
2019-05-03T01:48:21.583Z,89.56
2019-05-03T01:49:20.506Z,89.56
2019-05-03T01:50:22.779Z,90.49
2019-05-03T01:51:21.913Z,89.87
2019-05-03T01:52:21.915Z,90.69
2019-05-03T01:53:21.626Z,90.59
2019-05-03T01:54:22.890Z,90.08
2019-05-03T01:55:22.698Z,89.31
2019-05-03T01:56:22.367Z,89.77
2019-05-03T01:57:22.351Z,89.36
2019-05-03T01:58:21.725Z,89.25
2019-05-03T01:59:22.771Z,90.39
2019-05-03T02:00:23.503Z,90.33
2019-05-03T02:01:23.014Z,89.91
2019-05-03T02:02:55.684Z,89.71
2019-05-03T02:03:22.427Z,90.43
2019-05-03T02:04:22.579Z,89.81
2019-05-03T02:05:22.763Z,89.91
2019-05-03T02:06:22.945Z,91.05
2019-05-03T02:07:23.147Z,90.84
2019-05-03T02:08:23.347Z,90.73
2019-05-03T02:09:24.030Z,90.94
2019-05-03T02:10:23.655Z,90.94
2019-05-03T02:11:23.803Z,91.21
2019-05-03T02:12:23.949Z,91.05
2019-05-03T02:13:24.115Z,90.94
2019-05-03T02:14:24.288Z,91.15
2019-05-03T02:15:24.463Z,90.80
2019-05-03T02:16:25.550Z,90.64
2019-05-03T02:17:24.788Z,90.64
2019-05-03T02:18:24.961Z,90.94
2019-05-03T02:19:25.125Z,90.73
2019-05-03T02:20:25.277Z,91.36
2019-05-03T02:21:26.030Z,90.84
2019-05-03T02:22:25.638Z,90.94
2019-05-03T02:23:25.781Z,90.43
2019-05-03T02:24:26.020Z,90.73
2019-05-03T02:25:26.170Z,90.94
2019-05-03T02:26:26.302Z,90.94
2019-05-03T02:27:27.033Z,91.05
2019-05-03T02:28:26.642Z,91.46
2019-05-03T02:29:26.796Z,90.94
2019-05-03T02:30:26.945Z,91.56
2019-05-03T02:32:02.971Z,91.25
2019-05-03T02:32:27.323Z,91.36
2019-05-03T02:33:27.453Z,91.46
2019-05-03T02:34:27.575Z,91.56
2019-05-03T02:35:27.738Z,91.15
2019-05-03T02:36:27.854Z,90.57
2019-05-03T02:37:28.003Z,91.25
2019-05-03T02:38:28.239Z,90.47
2019-05-03T02:39:28.377Z,91.91
2019-05-03T02:40:28.513Z,92.02
2019-05-03T02:41:28.679Z,91.56
2019-05-03T02:42:28.811Z,91.66
2019-05-03T02:43:28.928Z,91.56
2019-05-03T02:44:29.059Z,91.87
2019-05-03T02:45:29.301Z,91.97
2019-05-03T02:46:29.489Z,91.77
2019-05-03T02:47:30.559Z,90.94
2019-05-03T02:48:29.768Z,91.77
2019-05-03T02:49:30.569Z,91.56
2019-05-03T02:50:30.562Z,91.36
2019-05-03T02:51:30.330Z,91.87
2019-05-03T02:52:31.062Z,91.46
2019-05-03T02:53:30.661Z,91.52
2019-05-03T02:54:31.559Z,91.31
2019-05-03T02:55:31.063Z,91.31
2019-05-03T02:56:31.572Z,91.42
2019-05-03T02:57:31.447Z,90.69
2019-05-03T02:58:31.590Z,91.05
2019-05-03T03:00:06.980Z,90.69
2019-05-03T03:00:31.922Z,90.39
2019-05-03T03:01:32.088Z,90.59
2019-05-03T03:02:32.213Z,89.97
2019-05-03T03:03:35.585Z,89.81
2019-05-03T03:04:35.146Z,90.33
2019-05-03T03:05:35.168Z,90.53
2019-05-03T03:06:33.094Z,90.12
2019-05-03T03:07:33.085Z,90.64
2019-05-03T03:08:36.492Z,90.73
2019-05-03T03:09:36.019Z,90.64
2019-05-03T03:10:35.668Z,90.12
2019-05-03T03:11:35.574Z,90.73
2019-05-03T03:12:35.659Z,90.43
2019-05-03T03:13:36.820Z,90.57
2019-05-03T03:14:36.199Z,90.53
2019-05-03T03:15:36.381Z,89.71
2019-05-03T03:16:36.596Z,89.44
2019-05-03T03:17:36.468Z,89.54
2019-05-03T03:18:36.581Z,89.75
2019-05-03T03:19:36.178Z,90.26
2019-05-03T03:20:36.087Z,90.06
2019-05-03T03:21:36.199Z,90.47
2019-05-03T03:22:36.753Z,90.99
2019-05-03T03:23:35.866Z,90.82
2019-05-03T03:24:36.316Z,90.82
2019-05-03T03:25:37.165Z,90.67
2019-05-03T03:26:42.435Z,91.13
2019-05-03T03:28:05.452Z,90.61
2019-05-03T03:28:37.126Z,90.92
2019-05-03T03:29:36.727Z,91.54
2019-05-03T03:30:37.902Z,91.75
2019-05-03T03:31:38.615Z,90.92
2019-05-03T03:32:38.900Z,90.76
2019-05-03T03:33:40.292Z,90.31
2019-05-03T03:34:39.400Z,90.86
2019-05-03T03:35:38.976Z,90.55
2019-05-03T03:36:57.910Z,91.85
2019-05-03T03:37:40.184Z,91.85
2019-05-03T03:38:38.313Z,91.24
2019-05-03T03:39:38.478Z,91.64
2019-05-03T03:40:39.625Z,92.16
2019-05-03T03:41:38.861Z,92.06
2019-05-03T03:42:39.613Z,92.21
2019-05-03T03:43:39.289Z,91.34
2019-05-03T03:44:39.427Z,90.97
2019-05-03T03:45:39.600Z,91.54
2019-05-03T03:46:40.610Z,91.89
2019-05-03T03:47:40.623Z,91.85
2019-05-03T03:48:40.173Z,91.69
2019-05-03T03:49:41.346Z,91.54
2019-05-03T03:50:41.107Z,91.85
2019-05-03T03:51:41.661Z,91.03
2019-05-03T03:52:40.787Z,91.34
2019-05-03T03:53:41.009Z,90.72
2019-05-03T03:54:41.199Z,90.61
2019-05-03T03:56:16.069Z,88.76
2019-05-03T03:56:55.969Z,89.17
2019-05-03T03:57:46.537Z,89.79
2019-05-03T03:58:41.948Z,89.38
2019-05-03T03:59:45.478Z,89.17
2019-05-03T04:00:46.184Z,89.38
2019-05-03T04:01:42.470Z,89.11
2019-05-03T04:02:42.661Z,89.48
2019-05-03T04:03:45.760Z,89.42
2019-05-03T04:04:45.018Z,89.94
2019-05-03T04:05:46.702Z,89.94
2019-05-03T04:06:46.403Z,90.76
2019-05-03T04:07:46.200Z,89.58
2019-05-03T04:08:45.362Z,89.83
2019-05-03T04:09:45.705Z,89.79
2019-05-03T04:10:46.353Z,89.48
2019-05-03T04:11:46.283Z,89.58
2019-05-03T04:12:46.145Z,89.48
2019-05-03T04:13:45.248Z,89.48
2019-05-03T04:14:45.785Z,88.65
2019-05-03T04:15:45.511Z,89.38
2019-05-03T04:16:46.157Z,90.04
2019-05-03T04:17:45.689Z,89.94
2019-05-03T04:18:46.603Z,90.66
2019-05-03T04:19:45.861Z,90.45
2019-05-03T04:20:46.051Z,91.13
2019-05-03T04:21:47.146Z,90.86
2019-05-03T04:22:46.414Z,91.03
2019-05-03T04:24:19.559Z,91.13
2019-05-03T04:24:46.684Z,91.34
2019-05-03T04:25:46.840Z,91.13
2019-05-03T04:26:47.005Z,90.82
2019-05-03T04:27:47.149Z,90.61
2019-05-03T04:28:47.315Z,90.72
2019-05-03T04:29:48.169Z,90.72
2019-05-03T04:30:48.174Z,89.79
2019-05-03T04:31:48.661Z,90.20
2019-05-03T04:32:47.938Z,90.51
2019-05-03T04:33:48.101Z,90.61
2019-05-03T04:34:48.269Z,91.48
2019-05-03T04:35:49.167Z,90.92
2019-05-03T04:36:48.676Z,90.51
2019-05-03T04:37:48.811Z,90.41
2019-05-03T04:38:48.976Z,90.76
2019-05-03T04:39:49.130Z,89.62
2019-05-03T04:40:50.174Z,89.52
2019-05-03T04:41:49.447Z,90.14
2019-05-03T04:42:49.690Z,89.62
2019-05-03T04:43:49.730Z,89.62
2019-05-03T04:44:50.670Z,89.94
2019-05-03T04:45:50.086Z,86.26
2019-05-03T04:46:54.844Z,86.57
2019-05-03T04:47:50.468Z,86.68
2019-05-03T04:48:51.161Z,86.98
2019-05-03T04:49:50.789Z,88.12
2019-05-03T04:50:50.920Z,88.12
2019-05-03T04:52:25.914Z,88.95
2019-05-03T04:52:51.312Z,88.43
2019-05-03T04:53:52.476Z,88.53
2019-05-03T04:54:51.601Z,89.25
2019-05-03T04:55:52.689Z,89.67
2019-05-03T04:56:51.982Z,90.19
2019-05-03T04:57:55.748Z,89.42
2019-05-03T04:58:52.683Z,90.19
2019-05-03T04:59:52.547Z,90.80
2019-05-03T05:00:55.402Z,90.49
2019-05-03T05:01:55.705Z,89.56
2019-05-03T05:02:55.149Z,89.15
2019-05-03T05:03:55.871Z,89.05
2019-05-03T05:04:55.607Z,88.84
2019-05-03T05:05:55.503Z,87.92
2019-05-03T05:06:55.465Z,88.84
2019-05-03T05:07:56.001Z,89.01
2019-05-03T05:08:55.289Z,88.53
2019-05-03T05:09:56.166Z,88.12
2019-05-03T05:10:56.016Z,88.59
2019-05-03T05:11:55.776Z,87.77
2019-05-03T05:12:55.657Z,89.52
2019-05-03T05:13:56.205Z,89.22
2019-05-03T05:14:56.439Z,89.36
2019-05-03T05:15:56.465Z,89.94
2019-05-03T05:16:56.663Z,89.94
2019-05-03T05:17:56.414Z,89.87
2019-05-03T05:18:57.074Z,89.62
2019-05-03T05:19:56.293Z,89.22
2019-05-03T05:20:56.406Z,90.66
2019-05-03T05:21:57.171Z,90.55
2019-05-03T05:22:56.781Z,91.07
2019-05-03T05:23:56.903Z,91.07
2019-05-03T05:24:57.188Z,90.76
2019-05-03T05:25:57.319Z,90.76
2019-05-03T05:26:57.436Z,90.82
2019-05-03T05:27:57.681Z,90.86
2019-05-03T05:28:57.811Z,91.24
2019-05-03T05:29:57.916Z,90.04
2019-05-03T05:30:58.153Z,90.04
2019-05-03T05:31:58.420Z,89.89
2019-05-03T05:32:58.522Z,89.73
2019-05-03T05:33:58.759Z,90.55
2019-05-03T05:34:59.005Z,90.25
2019-05-03T05:35:59.242Z,90.66
2019-05-03T05:36:59.447Z,90.35
2019-05-03T05:37:59.682Z,90.55
2019-05-03T05:38:59.893Z,90.82
2019-05-03T05:40:00.671Z,90.55
2019-05-03T05:41:00.287Z,90.04
2019-05-03T05:42:00.390Z,90.76
2019-05-03T05:43:01.167Z,89.07
2019-05-03T05:44:00.723Z,89.58
2019-05-03T05:45:34.974Z,89.94
2019-05-03T05:46:01.113Z,89.73
2019-05-03T05:47:01.318Z,90.97
2019-05-03T05:48:01.475Z,89.83
2019-05-03T05:49:01.706Z,90.45
2019-05-03T05:50:04.861Z,91.17
2019-05-03T05:51:01.964Z,91.17
2019-05-03T05:52:02.090Z,90.76
2019-05-03T05:53:02.224Z,90.55
2019-05-03T05:54:05.108Z,90.66
2019-05-03T05:55:04.546Z,91.22
2019-05-03T05:56:04.943Z,91.07
2019-05-03T05:57:05.423Z,89.05
2019-05-03T05:58:07.538Z,90.70
2019-05-03T05:59:05.270Z,90.55
2019-05-03T06:00:04.911Z,88.90
2019-05-03T06:01:05.485Z,89.83
2019-05-03T06:02:04.989Z,89.77
2019-05-03T06:03:05.191Z,90.55
2019-05-03T06:04:05.698Z,91.42
2019-05-03T06:05:04.817Z,91.63
2019-05-03T06:06:05.485Z,91.22
2019-05-03T06:07:05.201Z,90.97
2019-05-03T06:08:04.936Z,90.49
2019-05-03T06:09:05.198Z,90.70
2019-05-03T06:10:06.214Z,90.39
2019-05-03T06:11:05.436Z,89.98
2019-05-03T06:12:05.566Z,90.35
2019-05-03T06:13:39.098Z,89.98
2019-05-03T06:14:05.952Z,89.25
2019-05-03T06:15:06.089Z,88.49
2019-05-03T06:16:06.241Z,87.77
2019-05-03T06:17:06.378Z,88.70
2019-05-03T06:18:06.513Z,88.29
2019-05-03T06:19:07.238Z,89.11
2019-05-03T06:20:07.743Z,88.80
2019-05-03T06:21:07.088Z,88.59
2019-05-03T06:22:07.280Z,88.80
2019-05-03T06:23:08.258Z,88.90
2019-05-03T06:24:07.625Z,89.62
2019-05-03T06:25:08.743Z,88.96
2019-05-03T06:26:08.733Z,88.65
2019-05-03T06:27:08.094Z,89.01
2019-05-03T06:28:17.697Z,88.08
2019-05-03T06:29:10.459Z,89.11
2019-05-03T06:30:08.652Z,88.90
2019-05-03T06:31:08.882Z,88.76
2019-05-03T06:32:09.135Z,88.04
2019-05-03T06:33:09.276Z,88.65
2019-05-03T06:34:09.393Z,88.49
2019-05-03T06:35:09.640Z,88.56
2019-05-03T06:36:10.246Z,88.76
2019-05-03T06:37:09.994Z,89.38
2019-05-03T06:38:10.141Z,88.82
2019-05-03T06:39:10.273Z,87.73
2019-05-03T06:40:10.507Z,88.72
2019-05-03T06:41:10.769Z,89.03
2019-05-03T06:42:16.020Z,89.03
2019-05-03T06:43:15.599Z,87.99
2019-05-03T06:44:14.469Z,87.34
2019-05-03T06:45:11.906Z,86.52
2019-05-03T06:46:12.710Z,86.06
2019-05-03T06:47:12.257Z,85.24
2019-05-03T06:48:12.152Z,83.35
2019-05-03T06:49:15.169Z,82.90
2019-05-03T06:50:14.503Z,83.86
2019-05-03T06:51:19.716Z,83.86
2019-05-03T06:52:19.587Z,85.82
2019-05-03T06:53:15.588Z,84.17
2019-05-03T06:54:15.518Z,83.49
2019-05-03T06:55:14.556Z,85.44
2019-05-03T06:56:19.311Z,84.42
2019-05-03T06:57:14.852Z,82.67
2019-05-03T06:58:16.517Z,82.87
2019-05-03T06:59:15.111Z,82.35
2019-05-03T07:00:15.441Z,83.42
2019-05-03T07:01:16.248Z,84.14
2019-05-03T07:02:14.902Z,84.77
2019-05-03T07:03:16.260Z,82.43
2019-05-03T07:04:15.293Z,82.84
2019-05-03T07:05:15.987Z,84.45
2019-05-03T07:06:15.210Z,85.83
2019-05-03T07:07:15.578Z,82.95
2019-05-03T07:08:16.541Z,83.26
2019-05-03T07:09:16.255Z,83.47
2019-05-03T07:10:16.775Z,83.50
2019-05-03T07:11:16.740Z,84.19
2019-05-03T07:12:16.353Z,84.08
2019-05-03T07:13:17.261Z,84.22
2019-05-03T07:14:16.631Z,85.36
2019-05-03T07:15:16.794Z,86.18
2019-05-03T07:16:17.759Z,86.55
2019-05-03T07:17:17.123Z,85.01
2019-05-03T07:18:17.293Z,85.83
2019-05-03T07:19:17.441Z,86.60
2019-05-03T07:20:17.596Z,83.09
2019-05-03T07:21:18.264Z,82.84
2019-05-03T07:22:17.868Z,81.65
2019-05-03T07:23:17.986Z,82.37
2019-05-03T07:24:18.134Z,82.68
2019-05-03T07:25:18.302Z,84.33
2019-05-03T07:26:18.467Z,84.12
2019-05-03T07:27:19.238Z,83.81
2019-05-03T07:28:18.720Z,85.67
2019-05-03T07:29:19.742Z,84.74
2019-05-03T07:30:19.077Z,83.67
2019-05-03T07:31:19.260Z,84.19
2019-05-03T07:32:20.246Z,83.91
2019-05-03T07:33:19.624Z,84.49
2019-05-03T07:34:20.751Z,81.96
2019-05-03T07:35:20.263Z,83.40
2019-05-03T07:36:20.126Z,82.68
2019-05-03T07:37:20.341Z,82.89
2019-05-03T07:38:20.579Z,83.15
2019-05-03T07:39:20.715Z,83.26
2019-05-03T07:40:21.258Z,84.33
2019-05-03T07:41:24.461Z,83.26
2019-05-03T07:42:22.192Z,84.19
2019-05-03T07:43:21.399Z,83.15
2019-05-03T07:44:21.544Z,82.60
2019-05-03T07:45:21.669Z,83.22
2019-05-03T07:46:24.591Z,82.40
2019-05-03T07:47:21.950Z,82.67
2019-05-03T07:48:22.187Z,82.11
2019-05-03T07:49:22.309Z,83.72
2019-05-03T07:50:25.557Z,80.19
2019-05-03T07:51:24.670Z,79.05
2019-05-03T07:52:22.773Z,78.23
2019-05-03T07:53:25.008Z,76.45
2019-05-03T07:54:24.797Z,75.21
2019-05-03T07:55:24.968Z,76.72
2019-05-03T07:56:25.354Z,77.06
2019-05-03T07:57:25.508Z,77.06
2019-05-03T07:58:25.289Z,76.38
2019-05-03T07:59:25.093Z,78.54
2019-05-03T08:00:25.759Z,75.59
2019-05-03T08:01:25.169Z,76.52
2019-05-03T08:02:27.500Z,76.73
2019-05-03T08:03:25.901Z,77.07
2019-05-03T08:04:25.540Z,77.79
2019-05-03T08:05:26.261Z,78.10
2019-05-03T08:06:25.490Z,77.58
2019-05-03T08:07:25.902Z,77.38
2019-05-03T08:08:26.825Z,76.73
2019-05-03T08:09:26.044Z,78.27
2019-05-03T08:10:26.213Z,79.16
2019-05-03T08:11:27.259Z,78.54
2019-05-03T08:12:26.512Z,74.95
2019-05-03T08:13:27.260Z,73.13
2019-05-03T08:14:26.877Z,74.57
2019-05-03T08:15:27.283Z,72.27
2019-05-03T08:16:27.137Z,74.12
2019-05-03T08:17:27.267Z,75.04
2019-05-03T08:18:28.255Z,75.15
2019-05-03T08:19:27.638Z,73.91
2019-05-03T08:20:28.272Z,73.61
2019-05-03T08:21:27.887Z,73.50
2019-05-03T08:22:28.112Z,70.32
2019-05-03T08:23:30.306Z,69.18
2019-05-03T08:24:30.249Z,71.07
2019-05-03T08:25:28.595Z,69.32
2019-05-03T08:26:28.726Z,70.66
2019-05-03T08:27:28.881Z,70.28
2019-05-03T08:28:29.047Z,72.13
2019-05-03T08:29:29.232Z,72.85
2019-05-03T08:30:29.413Z,73.02
2019-05-03T08:31:29.597Z,70.04
2019-05-03T08:32:30.255Z,71.72
2019-05-03T08:34:04.820Z,72.81
2019-05-03T08:34:30.067Z,72.30
2019-05-03T08:35:30.195Z,71.34
2019-05-03T08:36:30.358Z,70.62
2019-05-03T08:37:30.495Z,67.95
2019-05-03T08:38:30.631Z,68.54
2019-05-03T08:39:31.278Z,66.93
2019-05-03T08:40:30.925Z,70.18
2019-05-03T08:41:31.060Z,68.98
2019-05-03T08:42:31.204Z,70.52
2019-05-03T08:43:31.348Z,67.96
2019-05-03T08:44:32.269Z,69.94
2019-05-03T08:45:31.646Z,69.02
2019-05-03T08:46:31.782Z,68.91
2019-05-03T08:47:31.942Z,67.38
2019-05-03T08:48:35.228Z,68.43
2019-05-03T08:49:34.563Z,68.02
2019-05-03T08:50:34.778Z,68.40
2019-05-03T08:51:32.734Z,70.49
2019-05-03T08:52:34.794Z,70.79
2019-05-03T08:53:35.597Z,70.04
2019-05-03T08:54:34.739Z,69.43
2019-05-03T08:55:35.222Z,67.92
2019-05-03T08:56:34.881Z,68.95
2019-05-03T08:57:35.442Z,70.18
2019-05-03T08:58:35.082Z,70.18
2019-05-03T08:59:35.788Z,69.39
2019-05-03T09:00:35.503Z,69.36
2019-05-03T09:02:40.187Z,72.24
2019-05-03T09:03:41.300Z,70.28
2019-05-03T09:04:43.057Z,68.95
2019-05-03T09:05:40.798Z,69.05
2019-05-03T09:06:41.031Z,67.82
2019-05-03T09:07:41.286Z,66.79
2019-05-03T09:08:41.392Z,67.71
2019-05-03T09:09:41.616Z,66.17
2019-05-03T09:10:41.836Z,67.30
2019-05-03T09:11:42.061Z,66.17
2019-05-03T09:12:42.306Z,66.28
2019-05-03T09:13:42.530Z,69.26
2019-05-03T09:14:46.370Z,67.00
2019-05-03T09:15:44.603Z,66.17
2019-05-03T09:16:44.758Z,64.56
2019-05-03T09:17:44.697Z,65.66
2019-05-03T09:18:45.381Z,62.58
2019-05-03T09:19:45.393Z,64.94
2019-05-03T09:20:44.786Z,62.58
2019-05-03T09:21:45.380Z,64.50
2019-05-03T09:22:45.301Z,64.70
2019-05-03T09:23:45.461Z,63.44
2019-05-03T09:24:45.698Z,64.16
2019-05-03T09:25:45.980Z,63.44
2019-05-03T09:26:47.011Z,64.85
2019-05-03T09:27:46.922Z,64.13
2019-05-03T09:28:46.431Z,63.82
2019-05-03T09:29:46.574Z,62.46
2019-05-03T09:30:47.422Z,58.62
2019-05-03T09:31:46.930Z,62.11
2019-05-03T09:32:47.084Z,60.26
2019-05-03T09:33:47.254Z,61.49
2019-05-03T09:34:47.380Z,63.21
2019-05-03T09:35:48.426Z,60.33
2019-05-03T09:36:50.328Z,61.98
2019-05-03T09:37:47.890Z,60.33
2019-05-03T09:38:48.026Z,60.05
2019-05-03T09:39:48.948Z,62.11
2019-05-03T09:40:48.329Z,61.80
2019-05-03T09:41:48.433Z,62.31
2019-05-03T09:42:48.542Z,62.14
2019-05-03T09:43:48.796Z,62.34
2019-05-03T09:44:48.938Z,63.57
2019-05-03T09:45:49.929Z,63.27
2019-05-03T09:46:49.933Z,62.55
2019-05-03T09:47:49.387Z,60.42
2019-05-03T09:48:50.459Z,62.58
2019-05-03T09:49:49.716Z,62.51
2019-05-03T09:50:49.831Z,63.74
2019-05-03T09:51:49.953Z,64.36
2019-05-03T09:52:50.176Z,64.25
2019-05-03T09:53:50.928Z,64.25
2019-05-03T09:54:51.431Z,64.66
2019-05-03T09:55:50.674Z,65.80
2019-05-03T09:56:55.921Z,64.56
2019-05-03T09:57:53.082Z,63.74
2019-05-03T09:58:51.924Z,65.05
2019-05-03T09:59:57.144Z,63.81
2019-05-03T10:00:55.539Z,65.32
2019-05-03T10:01:51.801Z,63.68
2019-05-03T10:02:51.973Z,63.37
2019-05-03T10:03:52.120Z,63.68
2019-05-03T10:04:55.245Z,62.04
2019-05-03T10:05:52.488Z,64.06
2019-05-03T10:06:54.748Z,62.39
2019-05-03T10:07:52.768Z,63.66
2019-05-03T10:08:52.902Z,59.97
2019-05-03T10:09:55.289Z,60.66
2019-05-03T10:10:53.927Z,60.25
2019-05-03T10:11:55.156Z,61.04
2019-05-03T10:12:55.070Z,58.58
2019-05-03T10:13:56.436Z,58.20
2019-05-03T10:14:55.060Z,56.56
2019-05-03T10:15:54.917Z,57.66
2019-05-03T10:16:55.270Z,56.49
2019-05-03T10:17:55.457Z,57.82
2019-05-03T10:18:56.452Z,55.66
2019-05-03T10:19:54.898Z,57.75
2019-05-03T10:20:56.095Z,56.82
2019-05-03T10:21:56.270Z,58.36
2019-05-03T10:22:55.516Z,58.56
2019-05-03T10:23:55.645Z,56.74
2019-05-03T10:24:55.768Z,59.82
2019-05-03T10:26:29.418Z,59.72
2019-05-03T10:26:56.955Z,58.83
2019-05-03T10:27:56.284Z,58.51
2019-05-03T10:28:56.421Z,58.72
2019-05-03T10:30:09.558Z,59.23
2019-05-03T10:30:58.870Z,61.49
2019-05-03T10:31:57.469Z,60.88
2019-05-03T10:32:57.234Z,58.62
2019-05-03T10:33:57.350Z,57.98
2019-05-03T10:34:57.499Z,58.28
2019-05-03T10:35:57.620Z,60.31
2019-05-03T10:36:57.757Z,58.56
2019-05-03T10:37:57.861Z,58.77
2019-05-03T10:38:58.015Z,60.69
2019-05-03T10:39:58.133Z,57.71
2019-05-03T10:40:58.965Z,58.30
2019-05-03T10:41:58.440Z,60.12
2019-05-03T10:42:59.465Z,58.53
2019-05-03T10:43:58.738Z,58.02
2019-05-03T10:44:58.892Z,58.43
2019-05-03T10:45:59.056Z,59.66
2019-05-03T10:46:59.237Z,56.69
2019-05-03T10:47:59.965Z,56.28
2019-05-03T10:48:59.628Z,56.92
2019-05-03T10:49:59.789Z,55.62
2019-05-03T10:50:59.976Z,54.21
2019-05-03T10:52:00.144Z,56.69
2019-05-03T10:53:00.295Z,57.89
2019-05-03T10:54:35.793Z,57.28
2019-05-03T10:55:00.592Z,58.51
2019-05-03T10:56:00.738Z,57.33
2019-05-03T10:57:00.890Z,60.17
2019-05-03T10:58:01.054Z,59.96
2019-05-03T10:59:01.185Z,56.48
2019-05-03T11:00:01.337Z,56.48
2019-05-03T11:01:01.493Z,55.23
2019-05-03T11:02:01.605Z,55.74
2019-05-03T11:03:02.479Z,52.08
2019-05-03T11:04:01.943Z,53.19
2019-05-03T11:05:02.081Z,51.04
2019-05-03T11:06:02.494Z,52.70
2019-05-03T11:07:02.401Z,56.99
2019-05-03T11:08:02.569Z,56.28
2019-05-03T11:09:02.717Z,55.13
2019-05-03T11:10:02.830Z,54.39
2019-05-03T11:11:02.989Z,54.16
2019-05-03T11:12:05.205Z,54.85
2019-05-03T11:13:05.768Z,50.99
2019-05-03T11:14:05.551Z,51.53
2019-05-03T11:15:03.662Z,51.21
2019-05-03T11:16:05.615Z,55.51
2019-05-03T11:17:05.651Z,54.16
2019-05-03T11:18:05.589Z,56.48
2019-05-03T11:19:05.475Z,52.47
2019-05-03T11:20:05.515Z,50.86
2019-05-03T11:21:05.494Z,51.48
2019-05-03T11:22:05.469Z,52.17
2019-05-03T11:23:06.230Z,50.76
2019-05-03T11:24:05.350Z,52.60
2019-05-03T11:25:05.525Z,54.16
2019-05-03T11:26:05.675Z,49.07
2019-05-03T11:27:05.825Z,48.46
2019-05-03T11:28:06.488Z,47.86
2019-05-03T11:29:06.095Z,49.83
2019-05-03T11:30:09.185Z,49.42
2019-05-03T11:31:07.006Z,48.09
2019-05-03T11:32:09.267Z,48.81
2019-05-03T11:33:07.781Z,47.11
2019-05-03T11:34:06.872Z,48.06
2019-05-03T11:35:06.995Z,49.69
2019-05-03T11:36:07.126Z,48.96
2019-05-03T11:37:07.278Z,49.47
2019-05-03T11:38:08.002Z,49.88
2019-05-03T11:39:07.684Z,48.14
2019-05-03T11:40:08.495Z,47.91
2019-05-03T11:41:07.983Z,47.09
2019-05-03T11:42:08.113Z,47.71
2019-05-03T11:43:08.233Z,47.27
2019-05-03T11:44:09.555Z,47.20
2019-05-03T11:45:09.498Z,46.57
2019-05-03T11:46:08.881Z,48.98
2019-05-03T11:47:09.002Z,47.55
2019-05-03T11:48:09.253Z,49.37
2019-05-03T11:49:09.999Z,47.53
2019-05-03T11:50:09.617Z,46.41
2019-05-03T11:51:10.018Z,48.85
2019-05-03T11:52:09.935Z,45.06
2019-05-03T11:53:10.136Z,44.83
2019-05-03T11:54:10.298Z,44.53
2019-05-03T11:55:11.981Z,43.30
2019-05-03T11:56:12.204Z,41.66
2019-05-03T11:57:10.854Z,42.08
2019-05-03T11:58:11.003Z,44.04
2019-05-03T11:59:11.137Z,44.65
2019-05-03T12:00:11.284Z,44.37
2019-05-03T12:01:16.192Z,43.77
2019-05-03T12:02:15.322Z,43.88
2019-05-03T12:03:11.852Z,44.69
2019-05-03T12:04:11.962Z,46.22
2019-05-03T12:05:12.103Z,44.69
2019-05-03T12:06:12.540Z,45.84
2019-05-03T12:07:12.438Z,45.61
2019-05-03T12:08:14.627Z,43.75
2019-05-03T12:09:12.713Z,43.94
2019-05-03T12:10:26.682Z,44.96
2019-05-03T12:11:15.214Z,46.79
2019-05-03T12:12:15.231Z,44.93
2019-05-03T12:13:15.800Z,45.01
2019-05-03T12:14:15.510Z,45.22
2019-05-03T12:15:15.105Z,43.18
2019-05-03T12:16:21.288Z,43.77
2019-05-03T12:17:20.939Z,49.25
2019-05-03T12:18:16.955Z,46.32
2019-05-03T12:19:19.794Z,42.96
2019-05-03T12:20:18.589Z,44.67
2019-05-03T12:21:17.886Z,42.94
2019-05-03T12:22:16.766Z,40.53
2019-05-03T12:23:16.923Z,39.84
2019-05-03T12:24:16.747Z,42.00
2019-05-03T12:25:16.994Z,43.94
2019-05-03T12:26:17.618Z,43.04
2019-05-03T12:27:16.902Z,44.06
2019-05-03T12:28:16.102Z,41.94
2019-05-03T12:29:16.221Z,44.18
2019-05-03T12:30:16.359Z,43.06
2019-05-03T12:31:29.565Z,41.59
2019-05-03T12:32:17.722Z,44.10
2019-05-03T12:33:16.948Z,41.25
2019-05-03T12:34:17.063Z,43.08
2019-05-03T12:35:17.307Z,43.69
2019-05-03T12:36:17.570Z,41.59
2019-05-03T12:37:17.694Z,41.89
2019-05-03T12:38:17.804Z,43.75
2019-05-03T12:39:26.658Z,44.16
2019-05-03T12:40:20.122Z,46.79
2019-05-03T12:41:18.317Z,43.75
2019-05-03T12:42:18.949Z,43.55
2019-05-03T12:43:19.762Z,42.94
2019-05-03T12:44:19.527Z,43.96
2019-05-03T12:45:19.523Z,42.63
2019-05-03T12:46:20.025Z,43.55
2019-05-03T12:47:22.120Z,44.06
2019-05-03T12:48:19.491Z,42.65
2019-05-03T12:49:20.510Z,43.77
2019-05-03T12:50:19.854Z,43.06
2019-05-03T12:51:20.025Z,42.94
2019-05-03T12:52:20.936Z,43.96
2019-05-03T12:53:21.995Z,44.46
2019-05-03T12:54:21.545Z,43.04
2019-05-03T12:55:20.619Z,41.53